Monday, August 20, 2018, 8:45 AM EDT
Back to Local

KCEF, Chicopee Falls / Westover Air Force Base

Location: Chicopee, MA, United States Lat: 42.2
Local Time: 8:45 AM EDT (12:45 GMT) Lon: -72.533
Time Zone: US/Eastern Elev: 246 ft

Show me the last for .
Show Decoded

2018-08-20 07:56 METAR KCEF 201156Z 34004KT 10SM FEW010 SCT019 BKN065 BKN180 19/15 A3018 RMK AO2A
                 SLP224 10180 20165 52017 =
2018-08-20 06:56 METAR KCEF 201056Z 02006KT 10SM FEW008 SCT016 BKN120 BKN180 17/15 A3016 RMK AO2A
                 SLP218 T01720148 =
2018-08-20 05:56 METAR KCEF 200956Z AUTO 02006KT 10SM BKN017 OVC031 17/15 A3014 RMK AO2 CIG
                 017V031 BKN V FEW SLP212 T01710145 =
2018-08-20 05:41 METAR KCEF 200941Z AUTO 01007KT 10SM FEW015 SCT024 OVC031 17/15 A3014 RMK AO2
                 SLP212 =
2018-08-20 04:56 METAR KCEF 200856Z AUTO 02007KT 10SM BKN016 OVC020 18/15 A3012 RMK AO2 SLP205
                 53002 =
2018-08-20 03:56 METAR KCEF 200756Z AUTO 05003KT 10SM OVC016 18/15 A3011 RMK AO2 SLP201 T01750153
                 =
2018-08-20 03:26 METAR KCEF 200726Z AUTO 07003KT 10SM OVC018 18/15 A3011 RMK AO2 SLP201 =
2018-08-20 02:56 METAR KCEF 200656Z AUTO 02005KT 10SM BKN022 OVC035 18/15 A3011 RMK AO2 SLP201
                 T01760147 =
2018-08-20 01:56 METAR KCEF 200556Z AUTO 02006KT 10SM FEW030 BKN036 OVC046 17/15 A3011 RMK AO2
                 SLP201 T01740150 10202 20164 58000 =
2018-08-20 00:56 METAR KCEF 200456Z AUTO 03006KT 10SM BKN045 BKN050 17/15 A3013 RMK AO2 SLP208
                 T01660148 402550164 =
2018-08-19 23:56 METAR KCEF 200356Z AUTO 02006KT 10SM SCT049 17/15 A3012 RMK AO2 SLP205 T01740145
                 =
2018-08-19 22:56 METAR KCEF 200256Z 06005KT 10SM BKN090 BKN200 17/14 A3012 RMK AO2A SLP205
                 T01670140 52012 =
2018-08-19 21:56 METAR KCEF 200156Z 07005KT 10SM BKN090 OVC200 18/14 A3011 RMK AO2A SLP201
                 T01800141 =
2018-08-19 20:56 METAR KCEF 200056Z 09004KT 10SM BKN090 BKN210 19/14 A3010 RMK AO2A SLP198
                 T01920138 =
2018-08-19 19:56 METAR KCEF 192356Z 09004KT 10SM BKN090 BKN180 20/13 A3008 RMK AO2A SLP191
                 T02020127 10255 20202 52018 =
2018-08-19 18:56 METAR KCEF 192256Z 00000KT 10SM BKN090 BKN180 22/13 A3007 RMK AO2A SLP188
                 T02150126 =
2018-08-19 17:56 METAR KCEF 192156Z 08007KT 10SM FEW050 BKN090 BKN180 23/11 A3005 RMK AO2A SLP181
                 T02290110 =
2018-08-19 16:56 METAR KCEF 192056Z COR 11007KT 10SM FEW050 SCT250 25/12 A3003 RMK AO2A SLP174
                 T02480124 53004 COR 2100 =
2018-08-19 15:56 METAR KCEF 191956Z 10007KT 10SM FEW050 SCT250 25/12 A3002 RMK AO2A SLP171
                 T02530118 =
2018-08-19 14:56 METAR KCEF 191856Z 07010G20KT 10SM FEW050 SCT250 25/11 A3001 RMK AO2A SLP167
                 T02530114 =
2018-08-19 13:56 METAR KCEF 191756Z 08005KT 10SM FEW049 FEW180 SCT250 25/13 A3002 RMK AO2A SLP171
                 T02530132 10254 20195 58001 =
2018-08-19 12:56 METAR KCEF 191656Z 07008G14KT 10SM FEW050 SCT190 25/13 A3001 RMK AO2A SLP167
                 T02470129 =
2018-08-19 11:56 METAR KCEF 191556Z 07007KT 10SM FEW030 FEW075 BKN250 24/13 A3002 RMK AO2A SLP171
                 T02420131 =
2018-08-19 10:56 METAR KCEF 191456Z 06010KT 10SM FEW075 BKN250 23/13 A3002 RMK AO2A SLP171
                 T02290134 52012 =
2018-08-19 09:56 METAR KCEF 191356Z 07010KT 10SM FEW025 BKN180 22/13 A3001 RMK AO2A SLP167
                 T02230134 =
2018-08-19 08:56 METAR KCEF 191256Z 06008G16KT 10SM FEW027 SCT075 BKN180 BKN250 21/16 A3000 RMK
                 AO2A SLP164 T02050155 =

Support USWX by starting your Amazon purchase here.